createdAt,value
2023-03-25T04:13:37.474Z,27.30
2023-03-25T04:23:35.884Z,9.00
2023-03-25T04:34:35.954Z,10.30
2023-03-25T04:45:35.984Z,8.70
2023-03-25T04:56:35.993Z,8.30
2023-03-25T05:08:36.034Z,8.35
2023-03-25T05:20:35.998Z,8.70
2023-03-25T05:32:36.075Z,7.30
2023-03-25T05:45:36.238Z,7.70
2023-03-25T05:57:36.099Z,7.00
2023-03-25T06:09:36.125Z,7.10
2023-03-25T06:21:36.178Z,6.70
2023-03-25T06:33:42.299Z,6.75
2023-03-25T06:45:36.138Z,6.10
2023-03-25T06:57:36.157Z,14.10
2023-03-25T07:09:36.165Z,16.35
2023-03-25T07:21:36.169Z,18.10
2023-03-25T07:33:36.204Z,15.10
2023-03-25T07:45:43.888Z,12.70
2023-03-25T07:57:36.226Z,13.85
2023-03-25T08:09:36.216Z,14.40
2023-03-25T08:21:36.209Z,12.80
2023-03-25T08:33:36.238Z,11.70
2023-03-25T08:45:36.283Z,9.30
2023-03-25T08:57:36.418Z,8.00
2023-03-25T09:09:36.349Z,9.00
2023-03-25T09:21:36.293Z,8.20
2023-03-25T09:33:36.321Z,7.70
2023-03-25T09:45:36.323Z,7.90
2023-03-25T09:57:36.308Z,8.10
2023-03-25T10:09:36.406Z,6.90
2023-03-25T10:21:36.362Z,5.70
2023-03-25T10:33:36.373Z,7.10
2023-03-25T10:48:36.389Z,5.70
2023-03-25T11:03:36.413Z,5.90
2023-03-25T11:18:37.456Z,5.30
2023-03-25T11:33:36.538Z,4.00
2023-03-25T11:48:36.449Z,5.30
2023-03-25T12:03:36.604Z,4.10
2023-03-25T12:18:36.446Z,4.40
2023-03-25T12:33:36.536Z,5.70
2023-03-25T12:48:36.538Z,6.80
2023-03-25T13:03:36.544Z,3.95
2023-03-25T13:18:36.545Z,5.40
2023-03-25T13:33:36.575Z,4.20
2023-03-25T13:48:36.612Z,5.00
2023-03-25T14:03:36.651Z,4.60
2023-03-25T14:18:36.647Z,4.60
2023-03-25T14:33:36.674Z,5.30
2023-03-25T14:48:36.688Z,6.30
2023-03-25T15:03:36.690Z,5.00
2023-03-25T15:18:36.686Z,5.00
2023-03-25T15:33:36.703Z,4.80
2023-03-25T15:48:36.688Z,5.70
2023-03-25T16:04:36.745Z,5.40
2023-03-25T16:20:36.745Z,5.10
2023-03-25T16:35:36.752Z,4.90
2023-03-25T16:50:36.792Z,4.30
2023-03-25T17:05:36.765Z,4.30
2023-03-25T17:20:36.795Z,4.60
2023-03-25T17:35:36.819Z,4.60
2023-03-25T17:50:36.808Z,4.00
2023-03-25T18:05:36.864Z,3.30
2023-03-25T18:19:36.819Z,3.90
2023-03-25T18:33:36.831Z,4.50
2023-03-25T18:48:36.849Z,4.90
2023-03-25T19:02:36.919Z,17.10
2023-03-25T19:16:36.922Z,13.00
2023-03-25T19:30:37.000Z,10.90
2023-03-25T19:44:36.938Z,11.10
2023-03-25T19:58:36.964Z,16.70
2023-03-25T20:12:36.983Z,28.30
2023-03-25T20:26:37.008Z,28.30
2023-03-25T20:40:43.878Z,27.40
2023-03-25T20:54:37.023Z,26.30
2023-03-25T21:08:37.039Z,24.40
2023-03-25T21:22:37.045Z,22.00
2023-03-25T21:36:37.064Z,20.10
2023-03-25T21:50:37.070Z,17.40
2023-03-25T22:04:37.106Z,15.60
2023-03-25T22:18:37.105Z,14.60
2023-03-25T22:32:37.134Z,13.20
2023-03-25T22:46:37.120Z,11.80
2023-03-25T23:00:37.117Z,10.90
2023-03-25T23:14:37.153Z,9.90
2023-03-25T23:28:37.164Z,8.50
2023-03-25T23:42:37.205Z,8.40
2023-03-25T23:56:37.238Z,7.90
